createdAt,value
2023-01-09T00:08:38.389Z,45.21
2023-01-09T00:18:39.757Z,45.22
2023-01-09T00:28:41.726Z,45.22
2023-01-09T00:38:43.087Z,45.24
2023-01-09T00:48:44.586Z,45.21
2023-01-09T00:58:45.951Z,45.16
2023-01-09T01:08:47.384Z,45.33
2023-01-09T01:18:48.819Z,45.13
2023-01-09T01:28:50.203Z,45.21
2023-01-09T01:38:51.584Z,45.29
2023-01-09T01:48:57.001Z,45.34
2023-01-09T01:59:08.728Z,45.33
2023-01-09T02:09:11.250Z,45.23
2023-01-09T02:19:38.603Z,45.26
2023-01-09T02:30:05.725Z,45.37
2023-01-09T02:40:16.377Z,45.17
2023-01-09T02:50:27.700Z,45.14
2023-01-09T03:00:45.645Z,45.09
2023-01-09T03:10:52.522Z,45.14
2023-01-09T03:20:53.929Z,45.15
2023-01-09T03:30:55.567Z,45.18
2023-01-09T03:40:57.000Z,45.10
2023-01-09T03:50:58.567Z,45.15
2023-01-09T04:01:01.377Z,45.31
2023-01-09T04:11:03.376Z,45.25
2023-01-09T04:21:04.921Z,45.29
2023-01-09T04:31:06.464Z,45.40
2023-01-09T04:41:07.886Z,45.44
2023-01-09T04:51:09.263Z,45.67
2023-01-09T05:01:10.785Z,45.68
2023-01-09T05:11:12.194Z,45.75
2023-01-09T05:21:13.613Z,45.77
2023-01-09T05:31:15.030Z,45.28
2023-01-09T05:41:16.405Z,44.97
2023-01-09T05:51:17.825Z,44.58
2023-01-09T06:01:19.241Z,44.39
2023-01-09T06:11:20.681Z,44.16
2023-01-09T06:21:22.076Z,43.97
2023-01-09T06:31:24.102Z,43.98
2023-01-09T06:41:25.475Z,44.16
2023-01-09T06:51:26.991Z,44.37
2023-01-09T07:01:28.466Z,44.44
2023-01-09T07:11:30.040Z,44.57
2023-01-09T07:21:32.828Z,44.54
2023-01-09T07:31:34.432Z,44.37
2023-01-09T07:41:35.992Z,44.28
2023-01-09T07:51:42.645Z,44.27
2023-01-09T08:01:44.280Z,44.49
2023-01-09T08:11:45.931Z,44.42
2023-01-09T08:21:47.377Z,44.56
2023-01-09T08:31:48.772Z,44.47
2023-01-09T08:42:08.776Z,44.56
2023-01-09T08:52:10.197Z,44.46
2023-01-09T09:02:11.759Z,44.36
2023-01-09T09:12:13.157Z,44.43
2023-01-09T09:22:14.720Z,44.56
2023-01-09T09:32:16.264Z,44.57
2023-01-09T09:42:49.821Z,44.61
2023-01-09T09:52:52.272Z,44.59
2023-01-09T10:02:58.229Z,44.57
2023-01-09T10:13:00.135Z,44.62
2023-01-09T10:23:10.418Z,44.50
2023-01-09T10:33:27.022Z,44.57
2023-01-09T10:43:54.432Z,44.54
2023-01-09T10:53:56.153Z,44.40
2023-01-09T11:04:02.068Z,44.31
2023-01-09T11:14:31.216Z,44.36
2023-01-09T11:24:32.836Z,44.39
2023-01-09T11:34:34.642Z,44.21
2023-01-09T11:44:36.009Z,44.25
2023-01-09T11:54:37.905Z,44.21
2023-01-09T12:04:54.853Z,44.23
2023-01-09T12:15:18.535Z,44.09
2023-01-09T12:25:34.745Z,44.11
2023-01-09T12:36:00.967Z,43.95
2023-01-09T12:46:15.462Z,43.95
2023-01-09T12:56:20.224Z,43.95
2023-01-09T13:06:21.801Z,43.86
2023-01-09T13:16:42.204Z,43.83
2023-01-09T13:26:46.248Z,43.81
2023-01-09T13:36:49.672Z,43.72
2023-01-09T13:46:55.834Z,43.74
2023-01-09T13:57:17.074Z,43.64
2023-01-09T14:07:20.777Z,43.72
2023-01-09T14:17:44.609Z,43.63
2023-01-09T14:27:54.737Z,43.63
2023-01-09T14:38:04.587Z,43.88
2023-01-09T14:48:06.303Z,43.61
2023-01-09T14:58:31.568Z,43.91
2023-01-09T15:08:33.226Z,43.92
2023-01-09T15:18:42.283Z,43.86
2023-01-09T15:28:43.843Z,43.86
2023-01-09T15:38:45.251Z,44.03
2023-01-09T15:48:46.646Z,44.04
2023-01-09T15:58:48.897Z,44.01
2023-01-09T16:08:52.147Z,44.12
2023-01-09T16:18:54.268Z,44.20
2023-01-09T16:28:55.726Z,44.23
2023-01-09T16:38:57.402Z,44.22
2023-01-09T16:48:59.527Z,44.31
2023-01-09T16:59:01.072Z,44.44
2023-01-09T17:09:02.459Z,44.35
2023-01-09T17:19:04.677Z,44.30
2023-01-09T17:29:07.097Z,44.32
2023-01-09T17:39:10.241Z,44.35
2023-01-09T17:49:19.530Z,44.35
2023-01-09T17:59:20.974Z,44.53
2023-01-09T18:09:22.358Z,44.44
2023-01-09T18:19:23.891Z,44.33
2023-01-09T18:29:25.340Z,44.35
2023-01-09T18:39:27.313Z,44.53
2023-01-09T18:49:28.718Z,44.38
2023-01-09T18:59:30.245Z,44.40
2023-01-09T19:09:32.025Z,44.42
2023-01-09T19:19:33.579Z,44.47
2023-01-09T19:29:36.660Z,44.52
2023-01-09T19:39:38.332Z,44.41
2023-01-09T19:49:39.825Z,44.58
2023-01-09T19:59:43.183Z,44.58
2023-01-09T20:09:44.670Z,44.54
2023-01-09T20:19:46.109Z,44.52
2023-01-09T20:29:47.844Z,44.58
2023-01-09T20:39:52.933Z,44.57
2023-01-09T20:49:54.393Z,44.75
2023-01-09T20:59:55.765Z,44.64
2023-01-09T21:09:57.137Z,44.71
2023-01-09T21:19:58.517Z,44.87
2023-01-09T21:29:59.893Z,44.95
2023-01-09T21:40:01.526Z,44.78
2023-01-09T21:50:02.918Z,45.00
2023-01-09T22:00:04.651Z,45.01
2023-01-09T22:10:06.603Z,44.98
2023-01-09T22:20:09.370Z,44.90
2023-01-09T22:30:11.650Z,44.99
2023-01-09T22:40:13.622Z,44.98
2023-01-09T22:50:15.487Z,45.21
2023-01-09T23:00:17.301Z,44.88
2023-01-09T23:10:18.866Z,44.82
2023-01-09T23:20:20.253Z,44.78
2023-01-09T23:30:21.709Z,44.79
2023-01-09T23:40:23.084Z,44.86
2023-01-09T23:50:24.462Z,44.93
